Richmond South's Hourly Summary for Thursday, May 10, 2018
Hour Temp
(f)
RH
(%)
Solar Rad.
(MJ/m2)
Rainfall
(in)
Wind
(mph)
5/10/2018 12:00 AM 66 75 0 0 0
5/10/2018 1:00 AM 65 79 0 0 1.8
5/10/2018 2:00 AM 67 86 0 0 2.71
5/10/2018 3:00 AM 65 88 0 0 0
5/10/2018 4:00 AM 64 92 0 0 0
5/10/2018 5:00 AM 63 95 0 0 0
5/10/2018 6:00 AM 62 94 0 0 0
5/10/2018 7:00 AM 62 96 0.04 0 0
5/10/2018 8:00 AM 66 86 0.22 0 2.01
5/10/2018 9:00 AM 74 74 0.8 0 6
5/10/2018 10:00 AM 78 61 1.65 0 9.28
5/10/2018 11:00 AM 81 50 2.21 0 10.51
5/10/2018 12:00 PM 84 36 2.93 0 11.09
5/10/2018 1:00 PM 86 35 3.44 0 11.83
5/10/2018 2:00 PM 88 34 3.43 0 11.91
5/10/2018 3:00 PM 88 36 3.29 0 11.96
5/10/2018 4:00 PM 87 38 2.7 0 12.59
5/10/2018 5:00 PM 87 38 2.51 0 14.91
5/10/2018 6:00 PM 86 38 1.72 0 14.22
5/10/2018 7:00 PM 83 42 0.99 0 12.88
5/10/2018 8:00 PM 80 47 0.3 0 9.58
5/10/2018 9:00 PM 76 54 0.01 0 6.17
5/10/2018 10:00 PM 73 65 0 0 5.55
5/10/2018 11:00 PM 72 76 0 0 5.98
Data Summary 75 63 26.24 0.00 6.71